createdAt,value
2017-05-06T00:00:05.581Z,46.9
2017-05-06T00:00:37.879Z,47.09
2017-05-06T00:01:10.821Z,46.71
2017-05-06T00:01:43.076Z,47.19
2017-05-06T00:02:15.339Z,47.19
2017-05-06T00:02:47.613Z,47.09
2017-05-06T00:03:19.882Z,47.19
2017-05-06T00:03:52.146Z,47
2017-05-06T00:04:25.198Z,46.71
2017-05-06T00:04:57.452Z,46.9
2017-05-06T00:05:29.714Z,46.61
2017-05-06T00:06:01.986Z,47.09
2017-05-06T00:06:34.307Z,47.19
2017-05-06T00:07:06.563Z,47.09
2017-05-06T00:07:39.812Z,47.19
2017-05-06T00:08:12.090Z,47.09
2017-05-06T00:08:44.484Z,47.09
2017-05-06T00:09:16.756Z,46.9
2017-05-06T00:09:49.066Z,47.09
2017-05-06T00:10:21.332Z,47.09
2017-05-06T00:10:53.601Z,46.81
2017-05-06T00:11:26.702Z,47
2017-05-06T00:11:58.972Z,47.09
2017-05-06T00:12:31.274Z,47
2017-05-06T00:13:03.586Z,46.81
2017-05-06T00:13:35.900Z,47.09
2017-05-06T00:14:08.213Z,47.09
2017-05-06T00:14:40.521Z,47
2017-05-06T00:15:27.395Z,47.09
2017-05-06T00:15:59.779Z,47.19
2017-05-06T00:16:32.163Z,47.09
2017-05-06T00:17:04.536Z,47.09
2017-05-06T00:17:36.960Z,47.19
2017-05-06T00:18:09.351Z,47
2017-05-06T00:18:41.747Z,47
2017-05-06T00:19:14.107Z,47.19
2017-05-06T00:19:46.408Z,47.09
2017-05-06T00:20:18.690Z,47.09
2017-05-06T00:20:50.992Z,46.81
2017-05-06T00:21:23.362Z,47.19
2017-05-06T00:21:55.764Z,47.19
2017-05-06T00:22:28.111Z,46.9
2017-05-06T00:23:00.373Z,46.9
2017-05-06T00:23:32.677Z,47.09
2017-05-06T00:24:04.945Z,47
2017-05-06T00:24:37.215Z,47.09
2017-05-06T00:25:09.490Z,47
2017-05-06T00:25:41.769Z,47
2017-05-06T00:26:14.117Z,47
2017-05-06T00:26:46.448Z,47
2017-05-06T00:27:18.722Z,47.09
2017-05-06T00:27:50.988Z,47.09
2017-05-06T00:28:23.802Z,46.9
2017-05-06T00:28:56.194Z,47.19
2017-05-06T00:29:28.470Z,46.9
2017-05-06T00:30:00.719Z,47.19
2017-05-06T00:30:33.003Z,47
2017-05-06T00:31:05.802Z,47.09
2017-05-06T00:31:38.074Z,47.09
2017-05-06T00:32:11.189Z,47.19
2017-05-06T00:32:43.493Z,47
2017-05-06T00:33:15.784Z,47
2017-05-06T00:33:48.062Z,46.9
2017-05-06T00:34:20.341Z,47.19
2017-05-06T00:34:53.187Z,47
2017-05-06T00:35:25.467Z,47
2017-05-06T00:35:57.755Z,46.81
2017-05-06T00:36:30.038Z,47.09
2017-05-06T00:37:02.402Z,47.19
2017-05-06T00:37:34.689Z,47.09
2017-05-06T00:38:06.955Z,47.19
2017-05-06T00:38:39.217Z,47.19
2017-05-06T00:39:11.490Z,47
2017-05-06T00:39:43.844Z,47.19
2017-05-06T00:40:16.132Z,46.81
2017-05-06T00:40:48.414Z,47.09
2017-05-06T00:41:20.689Z,47.19
2017-05-06T00:41:52.991Z,47.19
2017-05-06T00:42:25.316Z,46.61
2017-05-06T00:42:57.717Z,46.61
2017-05-06T00:43:30.101Z,47.19
2017-05-06T00:44:02.505Z,47.09
2017-05-06T00:44:34.894Z,47.19
2017-05-06T00:45:07.285Z,46.71
2017-05-06T00:45:39.682Z,46.9
2017-05-06T00:46:12.067Z,46.9
2017-05-06T00:46:44.461Z,47.19
2017-05-06T00:47:16.844Z,47.19
2017-05-06T00:47:49.240Z,46.81
2017-05-06T00:48:21.626Z,46.61
2017-05-06T00:48:54.019Z,47.09
2017-05-06T00:49:26.418Z,47.09
2017-05-06T00:49:58.793Z,47.19
2017-05-06T00:50:31.212Z,47
2017-05-06T00:51:03.615Z,47.09
2017-05-06T00:51:36.003Z,47.19
2017-05-06T00:52:08.376Z,47.09
2017-05-06T00:52:40.746Z,47.09
2017-05-06T00:53:13.133Z,47.09
2017-05-06T00:53:45.503Z,47.09
2017-05-06T00:54:17.901Z,46.9
2017-05-06T00:54:50.291Z,46.71
2017-05-06T00:55:22.689Z,47.19
2017-05-06T00:55:55.080Z,47.09
2017-05-06T00:56:27.480Z,46.9
2017-05-06T00:56:59.858Z,47.19
2017-05-06T00:57:32.250Z,46.71
2017-05-06T00:58:04.649Z,47.09
2017-05-06T00:58:37.057Z,47.19
2017-05-06T00:59:09.469Z,46.61
2017-05-06T00:59:41.872Z,47
2017-05-06T01:00:14.259Z,47.09
2017-05-06T01:00:46.635Z,47.09
2017-05-06T01:01:19.050Z,47.19
2017-05-06T01:01:51.476Z,47.29
2017-05-06T01:02:23.879Z,47.09
2017-05-06T01:02:56.274Z,46.9
2017-05-06T01:03:28.645Z,47.19
2017-05-06T01:04:01.032Z,46.9
2017-05-06T01:04:33.424Z,47.09
2017-05-06T01:05:05.817Z,47.09
2017-05-06T01:05:38.202Z,47.09
2017-05-06T01:06:10.571Z,47
2017-05-06T01:06:42.941Z,47.09
2017-05-06T01:07:15.336Z,47.09
2017-05-06T01:07:47.727Z,47.09
2017-05-06T01:08:20.116Z,46.61
2017-05-06T01:08:52.512Z,47.19
2017-05-06T01:09:24.939Z,47.19
2017-05-06T01:09:57.319Z,47.19
2017-05-06T01:10:29.701Z,47.19
2017-05-06T01:11:02.072Z,47.19
2017-05-06T01:11:34.472Z,47.09
2017-05-06T01:12:06.833Z,47.09
2017-05-06T01:12:39.098Z,47.19
2017-05-06T01:13:11.411Z,47.09
2017-05-06T01:13:43.699Z,46.81
2017-05-06T01:14:15.986Z,47.19
2017-05-06T01:14:48.381Z,46.9
2017-05-06T01:15:20.654Z,47.19
2017-05-06T01:15:52.918Z,47.19
2017-05-06T01:16:25.187Z,47.09
2017-05-06T01:16:57.456Z,46.9
2017-05-06T01:17:30.672Z,47.09
2017-05-06T01:18:02.938Z,47.19
2017-05-06T01:18:35.782Z,47.19
2017-05-06T01:19:08.078Z,46.9
2017-05-06T01:19:40.352Z,47.19
2017-05-06T01:20:12.663Z,47
2017-05-06T01:20:44.947Z,46.61
2017-05-06T01:21:17.236Z,47.19
2017-05-06T01:21:49.506Z,46.9
2017-05-06T01:22:21.850Z,47.19
2017-05-06T01:22:54.237Z,47.09
2017-05-06T01:23:26.608Z,47.09
2017-05-06T01:23:59.002Z,47.19
2017-05-06T01:24:31.408Z,46.9
2017-05-06T01:25:03.780Z,46.9
2017-05-06T01:25:36.186Z,47.19
2017-05-06T01:26:08.565Z,47.19
2017-05-06T01:26:40.956Z,46.61
2017-05-06T01:27:13.330Z,47.09
2017-05-06T01:27:45.727Z,47.09
2017-05-06T01:28:18.136Z,46.61
2017-05-06T01:28:50.511Z,46.9
2017-05-06T01:29:22.900Z,47
2017-05-06T01:29:55.289Z,47.19
2017-05-06T01:30:27.690Z,47.09
2017-05-06T01:31:00.092Z,46.81
2017-05-06T01:31:32.468Z,46.9
2017-05-06T01:32:04.807Z,47.09
2017-05-06T01:32:37.092Z,47.09
2017-05-06T01:33:09.362Z,47.09
2017-05-06T01:33:41.636Z,47.09
2017-05-06T01:34:14.750Z,46.9
2017-05-06T01:34:47.049Z,47.29
2017-05-06T01:35:19.332Z,47.09
2017-05-06T01:35:51.597Z,46.61
2017-05-06T01:36:24.779Z,46.61
2017-05-06T01:36:57.833Z,47.19
2017-05-06T01:37:30.113Z,46.61
2017-05-06T01:38:02.380Z,47.29
2017-05-06T01:38:34.663Z,46.71
2017-05-06T01:39:06.957Z,46.9
2017-05-06T01:39:39.264Z,47.09
2017-05-06T01:40:12.291Z,46.61
2017-05-06T01:40:44.569Z,46.9
2017-05-06T01:41:16.826Z,47.19
2017-05-06T01:41:49.087Z,46.71
2017-05-06T01:42:21.384Z,46.9
2017-05-06T01:42:53.709Z,47.19
2017-05-06T01:43:26.050Z,46.71
2017-05-06T01:43:58.375Z,46.71
2017-05-06T01:44:30.692Z,46.71
2017-05-06T01:45:03.000Z,46.9
2017-05-06T01:45:35.299Z,46.71
2017-05-06T01:46:07.602Z,46.9
2017-05-06T01:46:39.928Z,46.71
2017-05-06T01:47:12.240Z,46.71
2017-05-06T01:47:44.552Z,47.29
2017-05-06T01:48:16.868Z,46.61
2017-05-06T01:48:49.177Z,47.09
2017-05-06T01:49:21.530Z,47.19
2017-05-06T01:49:53.862Z,47
2017-05-06T01:50:26.195Z,46.61
2017-05-06T01:50:58.507Z,47
2017-05-06T01:51:30.810Z,46.81
2017-05-06T01:52:03.118Z,47.29
2017-05-06T01:52:35.445Z,46.81
2017-05-06T01:53:07.752Z,47.19
2017-05-06T01:53:40.052Z,46.9
2017-05-06T01:54:12.379Z,46.81
2017-05-06T01:54:44.687Z,47
2017-05-06T01:55:16.985Z,46.81
2017-05-06T01:55:49.288Z,47.09
2017-05-06T01:56:21.605Z,47
2017-05-06T01:56:53.905Z,47.09
2017-05-06T01:57:26.225Z,47
2017-05-06T01:57:58.528Z,47.09
2017-05-06T01:58:30.877Z,46.9
2017-05-06T01:59:03.182Z,47.09
2017-05-06T01:59:35.501Z,46.9
2017-05-06T02:00:07.826Z,46.61
2017-05-06T02:00:40.152Z,47.09
2017-05-06T02:01:12.465Z,46.81
2017-05-06T02:01:44.787Z,46.9
2017-05-06T02:02:17.084Z,46.9
2017-05-06T02:02:49.392Z,47.19
2017-05-06T02:03:21.734Z,46.9
2017-05-06T02:03:54.035Z,47.19
2017-05-06T02:04:26.345Z,46.71
2017-05-06T02:04:58.666Z,46.61
2017-05-06T02:05:30.977Z,47.09
2017-05-06T02:06:03.320Z,47
2017-05-06T02:06:35.637Z,46.81
2017-05-06T02:07:07.945Z,46.9
2017-05-06T02:07:40.257Z,47.29
2017-05-06T02:08:12.575Z,47
2017-05-06T02:08:44.887Z,47
2017-05-06T02:09:17.192Z,46.81
2017-05-06T02:09:49.555Z,47
2017-05-06T02:10:21.878Z,47.19
2017-05-06T02:10:54.186Z,46.9
2017-05-06T02:11:26.502Z,47.19
2017-05-06T02:11:58.798Z,47.09
2017-05-06T02:12:31.130Z,46.9
2017-05-06T02:13:03.440Z,46.61
2017-05-06T02:13:35.747Z,47
2017-05-06T02:14:08.065Z,46.81
2017-05-06T02:14:40.365Z,46.9
2017-05-06T02:15:12.668Z,47.09
2017-05-06T02:15:44.959Z,46.71
2017-05-06T02:16:17.278Z,46.9
2017-05-06T02:16:49.610Z,46.81
2017-05-06T02:17:21.910Z,47.09
2017-05-06T02:17:54.214Z,46.71
2017-05-06T02:18:26.550Z,46.9
2017-05-06T02:18:58.847Z,47
2017-05-06T02:19:31.153Z,46.9
2017-05-06T02:20:03.456Z,47.19
2017-05-06T02:20:35.778Z,46.9
2017-05-06T02:21:08.096Z,47.09
2017-05-06T02:21:40.398Z,47.09
2017-05-06T02:22:12.694Z,47.19
2017-05-06T02:22:44.961Z,46.9
2017-05-06T02:23:17.229Z,46.71
2017-05-06T02:23:49.501Z,46.9
2017-05-06T02:24:21.780Z,46.61
2017-05-06T02:24:54.074Z,47.09
2017-05-06T02:25:26.352Z,46.9
2017-05-06T02:25:58.629Z,46.61
2017-05-06T02:26:30.908Z,46.9
2017-05-06T02:27:03.177Z,47.09
2017-05-06T02:27:35.446Z,46.9
2017-05-06T02:28:07.713Z,46.71
2017-05-06T02:28:39.985Z,47.09
2017-05-06T02:29:12.263Z,47.09
2017-05-06T02:29:44.543Z,47.09
2017-05-06T02:30:16.804Z,46.71
2017-05-06T02:30:49.064Z,46.9
2017-05-06T02:31:21.337Z,46.71
2017-05-06T02:31:54.367Z,47.19
2017-05-06T02:32:26.652Z,47.19
2017-05-06T02:32:58.912Z,47.09
2017-05-06T02:33:31.293Z,47.19
2017-05-06T02:34:03.602Z,47.09
2017-05-06T02:34:35.877Z,46.61
2017-05-06T02:35:08.159Z,46.9
2017-05-06T02:35:40.440Z,46.61
2017-05-06T02:36:12.718Z,46.61
2017-05-06T02:36:44.986Z,46.9
2017-05-06T02:37:17.271Z,46.9
2017-05-06T02:37:50.429Z,46.81
2017-05-06T02:38:22.699Z,46.51
2017-05-06T02:38:55.066Z,46.81
2017-05-06T02:39:27.313Z,47.09
2017-05-06T02:39:59.589Z,46.81
2017-05-06T02:40:31.860Z,47.09
2017-05-06T02:41:04.130Z,46.81
2017-05-06T02:41:36.421Z,46.9
2017-05-06T02:42:08.710Z,47.29
2017-05-06T02:42:41.025Z,46.71
2017-05-06T02:43:13.329Z,46.9
2017-05-06T02:43:45.635Z,46.9
2017-05-06T02:44:17.946Z,47.09
2017-05-06T02:44:50.267Z,47.19
2017-05-06T02:45:22.582Z,47.09
2017-05-06T02:45:54.887Z,46.81
2017-05-06T02:46:27.180Z,47.19
2017-05-06T02:46:59.490Z,46.61
2017-05-06T02:47:31.806Z,46.9
2017-05-06T02:48:04.130Z,47.19
2017-05-06T02:48:36.444Z,47.19
2017-05-06T02:49:08.766Z,47.19
2017-05-06T02:49:41.082Z,47.19
2017-05-06T02:50:13.395Z,46.9
2017-05-06T02:50:45.703Z,47.09
2017-05-06T02:51:18.040Z,47.09
2017-05-06T02:51:50.341Z,47.19
2017-05-06T02:52:22.654Z,47.19
2017-05-06T02:52:54.956Z,46.61
2017-05-06T02:53:27.274Z,47.19
2017-05-06T02:53:59.588Z,47.19
2017-05-06T02:54:31.904Z,46.9
2017-05-06T02:55:04.234Z,47.19
2017-05-06T02:55:36.548Z,47.19
2017-05-06T02:56:08.852Z,47
2017-05-06T02:56:41.149Z,47.09
2017-05-06T02:57:13.455Z,46.9
2017-05-06T02:57:45.771Z,47.09
2017-05-06T02:58:18.108Z,46.9
2017-05-06T02:58:50.439Z,46.9
2017-05-06T02:59:22.752Z,47.09
2017-05-06T02:59:55.046Z,47.29
2017-05-06T03:00:27.368Z,47.09
2017-05-06T03:00:59.685Z,46.81
2017-05-06T03:01:32.016Z,47.19
2017-05-06T03:02:04.918Z,46.9
2017-05-06T03:02:37.830Z,47
2017-05-06T03:03:10.091Z,47.09
2017-05-06T03:03:42.342Z,46.61
2017-05-06T03:04:15.245Z,47.19
2017-05-06T03:04:47.533Z,47.19
2017-05-06T03:05:19.820Z,46.9
2017-05-06T03:05:52.076Z,47.09
2017-05-06T03:06:24.349Z,47.09
2017-05-06T03:06:56.627Z,46.9
2017-05-06T03:07:28.902Z,47.19
2017-05-06T03:08:01.211Z,47.19
2017-05-06T03:08:33.503Z,47.09
2017-05-06T03:09:05.785Z,46.71
2017-05-06T03:09:38.804Z,46.71
2017-05-06T03:10:11.075Z,46.81
2017-05-06T03:10:43.355Z,46.71
2017-05-06T03:11:15.634Z,46.9
2017-05-06T03:11:47.906Z,46.81
2017-05-06T03:12:20.179Z,46.71
2017-05-06T03:12:52.452Z,46.9
2017-05-06T03:13:24.821Z,47.19
2017-05-06T03:13:57.093Z,46.61
2017-05-06T03:14:29.347Z,46.81
2017-05-06T03:15:01.622Z,46.81
2017-05-06T03:15:33.894Z,46.81
2017-05-06T03:16:06.246Z,46.81
2017-05-06T03:16:38.523Z,46.71
2017-05-06T03:17:10.953Z,47.29
2017-05-06T03:17:43.346Z,46.61
2017-05-06T03:18:15.610Z,46.81
2017-05-06T03:18:47.898Z,47.19
2017-05-06T03:19:20.325Z,46.81
2017-05-06T03:19:52.586Z,46.9
2017-05-06T03:20:24.988Z,47.19
2017-05-06T03:20:57.847Z,47
2017-05-06T03:21:30.118Z,47.09
2017-05-06T03:22:02.381Z,47.09
2017-05-06T03:22:34.658Z,46.9
2017-05-06T03:23:07.774Z,46.9
2017-05-06T03:23:40.050Z,46.61
2017-05-06T03:24:12.401Z,46.81
2017-05-06T03:24:44.673Z,47.19
2017-05-06T03:25:16.935Z,46.61
2017-05-06T03:25:49.192Z,47.09
2017-05-06T03:26:21.467Z,47.19
2017-05-06T03:26:53.746Z,46.9
2017-05-06T03:27:26.028Z,46.71
2017-05-06T03:27:58.328Z,47.09
2017-05-06T03:28:30.608Z,46.61
2017-05-06T03:29:02.894Z,47.09
2017-05-06T03:29:35.862Z,46.9
2017-05-06T03:30:08.155Z,46.71
2017-05-06T03:30:40.524Z,46.81
2017-05-06T03:31:12.785Z,46.9
2017-05-06T03:31:45.053Z,46.51
2017-05-06T03:32:17.333Z,46.71
2017-05-06T03:32:49.596Z,47.09
2017-05-06T03:33:22.807Z,46.61
2017-05-06T03:33:55.072Z,47.29
2017-05-06T03:34:27.364Z,46.81
2017-05-06T03:34:59.650Z,46.97
2017-05-06T03:35:31.916Z,46.71
2017-05-06T03:36:04.170Z,46.71
2017-05-06T03:36:36.453Z,46.71
2017-05-06T03:37:08.734Z,47
2017-05-06T03:37:41.006Z,47.09
2017-05-06T03:38:13.291Z,46.71
2017-05-06T03:38:45.585Z,46.81
2017-05-06T03:39:17.880Z,46.9
2017-05-06T03:39:50.176Z,46.9
2017-05-06T03:40:22.451Z,47.09
2017-05-06T03:40:54.745Z,46.9
2017-05-06T03:41:27.025Z,46.81
2017-05-06T03:41:59.852Z,46.78
2017-05-06T03:42:32.131Z,46.9
2017-05-06T03:43:04.403Z,46.9
2017-05-06T03:43:36.676Z,47
2017-05-06T03:44:09.016Z,46.71
2017-05-06T03:44:41.289Z,46.9
2017-05-06T03:45:13.584Z,47
2017-05-06T03:45:45.843Z,46.71
2017-05-06T03:46:18.143Z,46.71
2017-05-06T03:46:51.320Z,46.71
2017-05-06T03:47:23.601Z,46.81
2017-05-06T03:47:55.906Z,46.71
2017-05-06T03:48:28.192Z,46.9
2017-05-06T03:49:00.478Z,47
2017-05-06T03:49:32.753Z,46.71
2017-05-06T03:50:05.053Z,46.71
2017-05-06T03:50:37.324Z,46.81
2017-05-06T03:51:09.606Z,46.9
2017-05-06T03:51:41.917Z,47
2017-05-06T03:52:14.802Z,46.81
2017-05-06T03:52:47.073Z,47.29
2017-05-06T03:53:19.360Z,46.9
2017-05-06T03:53:51.633Z,46.71
2017-05-06T03:54:24.003Z,46.61
2017-05-06T03:54:56.296Z,47
2017-05-06T03:55:28.569Z,46.71
2017-05-06T03:56:00.842Z,46.51
2017-05-06T03:56:33.090Z,47.19
2017-05-06T03:57:05.492Z,46.71
2017-05-06T03:57:37.762Z,46.71
2017-05-06T03:58:10.063Z,46.51
2017-05-06T03:58:42.360Z,46.71
2017-05-06T03:59:14.631Z,46.61
2017-05-06T03:59:46.891Z,46.71
2017-05-06T04:00:19.149Z,47.09
2017-05-06T04:00:51.421Z,46.61
2017-05-06T04:01:23.697Z,47
2017-05-06T04:01:55.976Z,46.61
2017-05-06T04:02:28.246Z,46.61
2017-05-06T04:03:00.561Z,46.71
2017-05-06T04:03:32.853Z,47
2017-05-06T04:04:05.133Z,47
2017-05-06T04:04:37.434Z,46.9
2017-05-06T04:05:09.711Z,46.71
2017-05-06T04:05:41.982Z,46.61
2017-05-06T04:06:14.272Z,46.51
2017-05-06T04:06:46.615Z,46.81
2017-05-06T04:07:18.897Z,46.81
2017-05-06T04:07:51.160Z,46.51
2017-05-06T04:08:23.447Z,46.81
2017-05-06T04:08:55.711Z,46.9
2017-05-06T04:09:27.987Z,46.81
2017-05-06T04:10:00.339Z,46.81
2017-05-06T04:10:32.621Z,46.9
2017-05-06T04:11:04.915Z,46.81
2017-05-06T04:11:37.192Z,46.71
2017-05-06T04:12:09.460Z,46.81
2017-05-06T04:12:41.814Z,46.81
2017-05-06T04:13:14.128Z,46.81
2017-05-06T04:13:46.433Z,46.61
2017-05-06T04:14:18.749Z,47
2017-05-06T04:14:51.057Z,46.61
2017-05-06T04:15:23.365Z,46.71
2017-05-06T04:15:55.668Z,46.71
2017-05-06T04:16:27.970Z,46.61
2017-05-06T04:17:00.276Z,46.81
2017-05-06T04:17:32.581Z,46.9
2017-05-06T04:18:04.928Z,46.81
2017-05-06T04:18:37.236Z,47
2017-05-06T04:19:09.534Z,46.61
2017-05-06T04:19:41.838Z,47
2017-05-06T04:20:14.135Z,46.9
2017-05-06T04:20:46.412Z,47
2017-05-06T04:21:18.699Z,46.61
2017-05-06T04:21:50.986Z,46.71
2017-05-06T04:22:23.277Z,46.81
2017-05-06T04:22:55.649Z,47
2017-05-06T04:23:28.412Z,46.71
2017-05-06T04:24:00.661Z,46.71
2017-05-06T04:24:32.914Z,46.9
2017-05-06T04:25:05.174Z,46.61
2017-05-06T04:25:37.424Z,46.9
2017-05-06T04:26:09.686Z,46.71
2017-05-06T04:26:41.938Z,46.9
2017-05-06T04:27:14.203Z,46.81
2017-05-06T04:27:46.453Z,46.81
2017-05-06T04:28:19.429Z,46.71
2017-05-06T04:28:52.312Z,46.9
2017-05-06T04:29:24.575Z,46.9
2017-05-06T04:29:56.831Z,46.9
2017-05-06T04:30:29.119Z,46.9
2017-05-06T04:31:01.390Z,46.71
2017-05-06T04:31:33.651Z,46.81
2017-05-06T04:32:06.883Z,47
2017-05-06T04:32:39.190Z,46.71
2017-05-06T04:33:11.470Z,46.71
2017-05-06T04:33:43.733Z,46.81
2017-05-06T04:34:16.022Z,46.81
2017-05-06T04:34:48.347Z,46.81
2017-05-06T04:35:20.639Z,46.81
2017-05-06T04:35:52.933Z,47
2017-05-06T04:36:25.232Z,46.71
2017-05-06T04:36:57.547Z,46.81
2017-05-06T04:37:29.879Z,46.71
2017-05-06T04:38:02.174Z,46.71
2017-05-06T04:38:34.474Z,46.71
2017-05-06T04:39:06.793Z,46.71
2017-05-06T04:39:39.070Z,46.81
2017-05-06T04:40:11.362Z,46.9
2017-05-06T04:40:43.640Z,46.71
2017-05-06T04:41:15.921Z,46.81
2017-05-06T04:41:48.235Z,46.71
2017-05-06T04:42:20.524Z,46.81
2017-05-06T04:42:52.780Z,46.81
2017-05-06T04:43:25.030Z,46.71
2017-05-06T04:43:57.290Z,46.81
2017-05-06T04:44:29.531Z,46.71
2017-05-06T04:45:01.790Z,46.71
2017-05-06T04:45:35.023Z,46.61
2017-05-06T04:46:07.286Z,46.71
2017-05-06T04:46:40.324Z,46.71
2017-05-06T04:47:12.575Z,46.71
2017-05-06T04:47:44.844Z,46.61
2017-05-06T04:48:17.117Z,46.61
2017-05-06T04:48:49.370Z,46.71
2017-05-06T04:49:21.619Z,46.71
2017-05-06T04:49:54.884Z,46.61
2017-05-06T04:50:27.198Z,46.71
2017-05-06T04:50:59.478Z,46.61
2017-05-06T04:51:31.758Z,46.92
2017-05-06T04:52:04.007Z,46.71
2017-05-06T04:52:36.302Z,46.71
2017-05-06T04:53:08.602Z,46.81
2017-05-06T04:53:40.942Z,46.71
2017-05-06T04:54:13.248Z,46.9
2017-05-06T04:54:45.542Z,46.81
2017-05-06T04:55:17.834Z,46.71
2017-05-06T04:55:50.116Z,46.81
2017-05-06T04:56:22.408Z,46.51
2017-05-06T04:56:54.706Z,46.81
2017-05-06T04:57:27.004Z,46.71
2017-05-06T04:57:59.297Z,46.9
2017-05-06T04:58:31.590Z,46.71
2017-05-06T04:59:03.875Z,46.51
2017-05-06T04:59:36.166Z,46.71
2017-05-06T05:00:08.452Z,46.71
2017-05-06T05:00:40.746Z,46.71
2017-05-06T05:01:13.054Z,46.51
2017-05-06T05:01:45.352Z,46.71
2017-05-06T05:02:17.663Z,46.61
2017-05-06T05:02:49.936Z,46.81
2017-05-06T05:03:22.216Z,46.71
2017-05-06T05:03:54.478Z,46.71
2017-05-06T05:04:26.732Z,46.61
2017-05-06T05:04:59.008Z,46.64
2017-05-06T05:05:31.936Z,46.71
2017-05-06T05:06:04.220Z,46.83
2017-05-06T05:06:36.457Z,46.83
2017-05-06T05:07:08.850Z,46.92
2017-05-06T05:07:41.097Z,46.73
2017-05-06T05:08:13.367Z,46.73
2017-05-06T05:08:45.645Z,46.73
2017-05-06T05:09:17.893Z,46.83
2017-05-06T05:09:50.979Z,47.02
2017-05-06T05:10:23.231Z,47.02
2017-05-06T05:10:55.487Z,46.64
2017-05-06T05:11:27.738Z,47.02
2017-05-06T05:12:01.460Z,46.92
2017-05-06T05:12:34.402Z,46.64
2017-05-06T05:13:06.672Z,46.92
2017-05-06T05:13:39.916Z,46.64
2017-05-06T05:14:12.182Z,46.73
2017-05-06T05:14:44.445Z,46.25
2017-05-06T05:15:16.695Z,46.92
2017-05-06T05:15:48.945Z,46.64
2017-05-06T05:16:21.193Z,46.44
2017-05-06T05:16:53.438Z,46.83
2017-05-06T05:17:25.687Z,46.73
2017-05-06T05:17:57.954Z,46.92
2017-05-06T05:18:30.238Z,47.02
2017-05-06T05:19:02.488Z,46.83
2017-05-06T05:19:34.728Z,46.83
2017-05-06T05:20:07.943Z,46.92
2017-05-06T05:20:40.203Z,46.64
2017-05-06T05:21:12.450Z,46.92
2017-05-06T05:21:45.848Z,46.92
2017-05-06T05:22:18.958Z,46.64
2017-05-06T05:22:51.216Z,46.83
2017-05-06T05:23:23.463Z,46.73
2017-05-06T05:23:55.717Z,46.34
2017-05-06T05:24:27.983Z,46.44
2017-05-06T05:25:00.797Z,46.83
2017-05-06T05:25:33.095Z,46.64
2017-05-06T05:26:05.363Z,46.44
2017-05-06T05:26:37.632Z,46.34
2017-05-06T05:27:09.895Z,46.25
2017-05-06T05:27:42.835Z,46.44
2017-05-06T05:28:15.113Z,46.34
2017-05-06T05:28:47.351Z,46.44
2017-05-06T05:29:19.601Z,46.34
2017-05-06T05:29:51.851Z,46.64
2017-05-06T05:30:25.492Z,46.73
2017-05-06T05:30:57.757Z,46.44
2017-05-06T05:31:30.009Z,46.54
2017-05-06T05:32:02.266Z,46.54
2017-05-06T05:32:34.523Z,46.64
2017-05-06T05:33:07.493Z,46.54
2017-05-06T05:33:39.766Z,46.54
2017-05-06T05:34:12.026Z,46.44
2017-05-06T05:34:44.416Z,46.54
2017-05-06T05:35:16.678Z,46.34
2017-05-06T05:35:48.926Z,46.54
2017-05-06T05:36:21.195Z,46.64
2017-05-06T05:36:53.475Z,46.44
2017-05-06T05:37:25.746Z,46.34
2017-05-06T05:37:58.009Z,46.54
2017-05-06T05:38:30.395Z,46.34
2017-05-06T05:39:02.641Z,46.34
2017-05-06T05:39:34.888Z,46.44
2017-05-06T05:40:07.180Z,46.54
2017-05-06T05:40:40.353Z,46.54
2017-05-06T05:41:12.606Z,46.54
2017-05-06T05:41:45.400Z,46.25
2017-05-06T05:42:17.654Z,46.34
2017-05-06T05:42:49.905Z,46.44
2017-05-06T05:43:22.998Z,46.54
2017-05-06T05:43:55.250Z,46.34
2017-05-06T05:44:27.501Z,46.44
2017-05-06T05:44:59.733Z,46.44
2017-05-06T05:45:31.982Z,46.54
2017-05-06T05:46:04.211Z,46.34
2017-05-06T05:46:36.450Z,46.34
2017-05-06T05:47:09.366Z,46.44
2017-05-06T05:47:41.619Z,46.54
2017-05-06T05:48:13.866Z,46.44
2017-05-06T05:48:46.844Z,46.34
2017-05-06T05:49:19.105Z,46.34
2017-05-06T05:49:51.349Z,46.44
2017-05-06T05:50:23.598Z,46.54
2017-05-06T05:50:55.960Z,46.34
2017-05-06T05:51:28.213Z,46.34
2017-05-06T05:52:00.470Z,46.44
2017-05-06T05:52:32.747Z,46.34
2017-05-06T05:53:05.035Z,46.34
2017-05-06T05:53:37.328Z,46.54
2017-05-06T05:54:09.600Z,46.15
2017-05-06T05:54:41.887Z,46.25
2017-05-06T05:55:14.158Z,46.54
2017-05-06T05:55:46.444Z,46.25
2017-05-06T05:56:18.724Z,46.25
2017-05-06T05:56:51.016Z,46.44
2017-05-06T05:57:23.308Z,46.54
2017-05-06T05:57:55.608Z,46.54
2017-05-06T05:58:27.902Z,46.54
2017-05-06T05:59:00.169Z,46.25
2017-05-06T05:59:32.505Z,46.34
2017-05-06T06:00:04.815Z,46.54
2017-05-06T06:00:37.118Z,46.25
2017-05-06T06:01:09.416Z,46.54
2017-05-06T06:01:41.723Z,46.25
2017-05-06T06:02:14.013Z,46.44
2017-05-06T06:02:46.287Z,46.15
2017-05-06T06:03:18.591Z,46.15
2017-05-06T06:03:50.883Z,46.25
2017-05-06T06:04:23.189Z,46.25
2017-05-06T06:04:55.473Z,46.44
2017-05-06T06:05:27.798Z,46.47
2017-05-06T06:06:00.089Z,46.54
2017-05-06T06:06:32.387Z,46.25
2017-05-06T06:07:04.681Z,46.25
2017-05-06T06:07:36.967Z,46.17
2017-05-06T06:08:09.252Z,46.44
2017-05-06T06:08:41.550Z,46.15
2017-05-06T06:09:13.829Z,46.25
2017-05-06T06:09:46.109Z,46.44
2017-05-06T06:10:18.391Z,46.15
2017-05-06T06:10:50.679Z,46.37
2017-05-06T06:11:22.970Z,46.44
2017-05-06T06:11:55.256Z,46.54
2017-05-06T06:12:27.547Z,46.44
2017-05-06T06:12:59.835Z,46.44
2017-05-06T06:13:32.132Z,46.25
2017-05-06T06:14:04.408Z,46.44
2017-05-06T06:14:36.714Z,46.25
2017-05-06T06:15:09.015Z,46.15
2017-05-06T06:15:41.301Z,46.25
2017-05-06T06:16:13.582Z,46.25
2017-05-06T06:16:45.870Z,46.15
2017-05-06T06:17:18.173Z,46.06
2017-05-06T06:17:50.462Z,46.34
2017-05-06T06:18:22.752Z,46.54
2017-05-06T06:18:55.043Z,46.34
2017-05-06T06:19:27.356Z,46.15
2017-05-06T06:19:59.664Z,46.34
2017-05-06T06:20:31.956Z,46.34
2017-05-06T06:21:04.238Z,46.27
2017-05-06T06:21:36.534Z,46.17
2017-05-06T06:22:08.816Z,46.34
2017-05-06T06:22:41.113Z,46.08
2017-05-06T06:23:13.406Z,46.56
2017-05-06T06:23:45.692Z,46.25
2017-05-06T06:24:17.984Z,46.56
2017-05-06T06:24:50.247Z,46.47
2017-05-06T06:25:22.534Z,46.47
2017-05-06T06:25:54.834Z,46.47
2017-05-06T06:26:27.129Z,46.44
2017-05-06T06:26:59.421Z,46.27
2017-05-06T06:27:31.707Z,46.37
2017-05-06T06:28:04.009Z,46.37
2017-05-06T06:28:36.287Z,45.98
2017-05-06T06:29:08.567Z,46.47
2017-05-06T06:29:40.863Z,46.56
2017-05-06T06:30:13.181Z,46.17
2017-05-06T06:30:45.481Z,46.17
2017-05-06T06:31:17.768Z,46.17
2017-05-06T06:31:50.056Z,46.56
2017-05-06T06:32:22.354Z,46.17
2017-05-06T06:32:54.657Z,46.17
2017-05-06T06:33:26.946Z,46.75
2017-05-06T06:33:59.236Z,46.75
2017-05-06T06:34:31.525Z,46.17
2017-05-06T06:35:03.822Z,46.66
2017-05-06T06:35:36.109Z,46.27
2017-05-06T06:36:08.401Z,46.95
2017-05-06T06:36:40.685Z,46.27
2017-05-06T06:37:12.970Z,46.27
2017-05-06T06:37:45.269Z,46.17
2017-05-06T06:38:17.568Z,46.66
2017-05-06T06:38:49.875Z,46.85
2017-05-06T06:39:22.163Z,46.47
2017-05-06T06:39:54.453Z,46.27
2017-05-06T06:40:26.752Z,46.75
2017-05-06T06:40:59.032Z,46.56
2017-05-06T06:41:31.324Z,46.56
2017-05-06T06:42:03.602Z,46.37
2017-05-06T06:42:36.943Z,46.27
2017-05-06T06:43:09.211Z,46.27
2017-05-06T06:43:41.467Z,46.27
2017-05-06T06:44:13.718Z,46.47
2017-05-06T06:44:45.970Z,46.47
2017-05-06T06:45:18.883Z,46.47
2017-05-06T06:45:51.140Z,46.47
2017-05-06T06:46:23.383Z,46.27
2017-05-06T06:46:55.643Z,46.37
2017-05-06T06:47:27.903Z,46.75
2017-05-06T06:48:01.015Z,46.75
2017-05-06T06:48:33.283Z,46.37
2017-05-06T06:49:05.560Z,46.66
2017-05-06T06:49:37.822Z,46.66
2017-05-06T06:50:10.072Z,46.66
2017-05-06T06:50:42.312Z,46.27
2017-05-06T06:51:14.592Z,46.27
2017-05-06T06:51:46.911Z,46.17
2017-05-06T06:52:19.186Z,46.08
2017-05-06T06:52:51.476Z,46.47
2017-05-06T06:53:23.765Z,46.47
2017-05-06T06:53:56.039Z,46.47
2017-05-06T06:54:28.333Z,46.27
2017-05-06T06:55:00.630Z,46.47
2017-05-06T06:55:32.929Z,46.37
2017-05-06T06:56:05.223Z,46.47
2017-05-06T06:56:37.523Z,46.56
2017-05-06T06:57:09.827Z,46.56
2017-05-06T06:57:42.114Z,46.37
2017-05-06T06:58:14.411Z,46.56
2017-05-06T06:58:46.702Z,46.37
2017-05-06T06:59:19.001Z,46.47
2017-05-06T06:59:51.291Z,46.37
2017-05-06T07:00:23.573Z,46.47
2017-05-06T07:00:55.865Z,46.37